Latest Weather Observations for Batchelor

IDD60901

Issued at 8:01 pm CST Sunday 25 June 2017 (issued every 10 minutes, with the page automatically refreshed every 10 minutes)

About weather observations | Map of Darwin area stations | Latest observations for Darwin area | Other Formats
Station Details ID: 014272 Name: BATCHELOR AIRPORT Lat: -13.05 Lon: 131.03 Height: 104.0 m
Data from the previous 72 hours. | See also: Recent months at Batchelor
Date/Time
CST
Temp
°C
App
Temp
°C
Dew
Point
°C
Rel
Hum
%
Delta-T
°C
Wind Press
QNH
hPa
Press
MSL
hPa
Rain since
9am
mm
Dir  Spd
km/h
Gust
km/h
Spd
kts
Gust
kts
25/08:00pm 24.0 25.4 17.3 66 4.2 WNW 6 9 3 5 1012.5 1012.1 0.0
25/07:30pm 23.5 23.7 14.8 58 5.2 W 7 15 4 8 1012.1 1011.6 0.0
25/07:00pm 24.3 24.8 11.6 45 7.2 CALM 0 0 0 0 1011.5 1011.0 0.0
25/06:30pm 26.8 27.0 10.5 36 9.2 CALM 0 2 0 1 1011.1 1010.6 0.0
25/06:00pm 29.8 27.8 8.8 27 11.7 ESE 9 13 5 7 1010.9 1010.4 0.0
25/05:30pm 30.9 29.0 9.2 26 12.2 SE 9 11 5 6 1010.6 1010.1 0.0
25/05:00pm 31.1 29.3 9.3 26 12.3 ESE 9 15 5 8 1010.6 1010.1 0.0
25/04:30pm 31.7 30.4 9.8 26 12.5 ESE 7 13 4 7 1010.7 1010.2 0.0
25/04:00pm 31.7 30.0 9.8 26 12.5 SE 9 15 5 8 1010.8 1010.3 0.0
25/03:30pm 31.5 29.1 10.2 27 12.2 ESE 13 20 7 11 1010.8 1010.3 0.0
25/03:00pm 31.7 29.2 9.8 26 12.5 E 13 26 7 14 1010.9 1010.4 0.0
25/02:30pm 31.0 29.5 10.4 28 11.8 E 9 20 5 11 1011.3 1010.8 0.0
25/02:00pm 30.4 28.9 10.4 29 11.4 E 9 20 5 11 1011.8 1011.3 0.0
25/01:30pm 30.6 28.2 11.5 30 11.1 E 15 24 8 13 1012.2 1011.7 0.0
25/01:00pm 29.7 28.1 11.7 33 10.5 E 11 19 6 10 1012.8 1012.3 0.0
25/12:30pm 29.7 27.0 11.7 33 10.5 ESE 17 30 9 16 1013.4 1012.9 0.0
25/12:00pm 29.6 29.0 13.4 37 9.7 E 9 20 5 11 1013.7 1013.2 0.0
25/11:30am 28.3 28.0 14.5 43 8.4 E 9 19 5 10 1014.1 1013.6 0.0
25/11:00am 27.7 27.2 15.0 45 7.7 ENE 11 17 6 9 1014.3 1013.8 0.0
25/10:30am 26.9 26.5 15.3 49 7.1 NE 11 19 6 10 1014.4 1013.9 0.0
25/10:00am 26.2 26.5 15.9 53 6.3 NE 9 15 5 8 1014.5 1014.0 0.0
25/09:30am 25.5 27.0 17.7 62 4.9 NNE 6 9 3 5 1014.5 1014.0 0.0
25/09:00am 23.9 26.5 19.2 75 3.0 WNW 4 6 2 3 1014.4 1013.9 0.0
25/08:30am 22.0 25.8 20.1 89 1.2 CALM 0 0 0 0 1014.3 1013.8 0.0
25/08:00am 18.1 20.9 17.9 99 0.1 CALM 0 0 0 0 1014.1 1013.6 0.0
25/07:30am 15.9 17.7 15.4 97 0.3 CALM 0 0 0 0 1013.9 1013.4 0.0
25/07:00am 15.7 17.4 15.1 96 0.3 CALM 0 0 0 0 1013.7 1013.2 0.0
25/06:30am 16.2 18.2 15.9 98 0.2 CALM 0 0 0 0 1013.3 1012.8 0.0
25/06:00am 16.2 18.0 15.6 96 0.4 CALM 0 0 0 0 1013.1 1012.6 0.0
25/05:30am 16.0 17.6 15.0 94 0.6 CALM 0 0 0 0 1013.0 1012.5 0.0
25/05:00am 15.9 17.5 14.9 94 0.6 CALM 0 0 0 0 1012.8 1012.3 0.0
25/04:30am 16.4 18.1 15.3 93 0.6 CALM 0 0 0 0 1012.5 1012.1 0.0
25/04:00am 16.8 18.7 15.8 94 0.6 CALM 0 0 0 0 1012.4 1012.0 0.0
25/03:30am 17.5 19.8 16.7 95 0.5 CALM 0 0 0 0 1012.4 1012.0 0.0
25/03:00am 17.3 19.4 16.2 93 0.7 CALM 0 0 0 0 1012.5 1012.1 0.0
25/02:30am 17.2 19.0 15.5 90 1.0 CALM 0 0 0 0 1012.6 1012.2 0.0
25/02:00am 17.8 20.1 16.8 94 0.6 CALM 0 0 0 0 1012.8 1012.3 0.0
25/01:30am 18.3 20.8 17.3 94 0.6 CALM 0 0 0 0 1013.0 1012.5 0.0
25/01:00am 18.2 20.6 16.9 92 0.8 CALM 0 0 0 0 1013.1 1012.6 0.0
25/12:30am 18.5 20.6 16.3 87 1.3 CALM 0 0 0 0 1013.1 1012.6 0.0
25/12:00am 19.0 21.2 16.4 85 1.6 CALM 0 0 0 0 1013.0 1012.5 0.0
 
Date/Time
CST
Temp
°C
App
Temp
°C
Dew
Point
°C
Rel
Hum
%
Delta-T
°C
Wind Press
QNH
hPa
Press
MSL
hPa
Rain since
9am
mm
Dir  Spd
km/h
Gust
km/h
Spd
kts
Gust
kts
24/11:30pm 20.3 22.8 17.3 83 1.8 CALM 0 0 0 0 1013.0 1012.5 0.0
24/11:00pm 21.9 24.0 18.9 83 1.9 W 6 9 3 5 1012.9 1012.4 0.0
24/10:30pm 22.2 24.0 18.8 81 2.2 W 7 15 4 8 1012.9 1012.4 0.0
24/10:00pm 22.3 23.8 18.1 77 2.6 WNW 7 15 4 8 1012.5 1012.1 0.0
24/09:30pm 19.9 20.7 12.4 62 4.2 CALM 0 6 0 3 1012.2 1011.7 0.0
24/09:00pm 20.6 21.3 12.3 59 4.7 CALM 0 0 0 0 1011.9 1011.4 0.0
24/08:30pm 20.7 21.4 12.1 58 4.8 CALM 0 0 0 0 1011.5 1011.0 0.0
24/08:00pm 21.5 22.0 11.5 53 5.6 CALM 0 0 0 0 1011.1 1010.6 0.0
24/07:30pm 22.4 22.7 10.9 48 6.4 CALM 0 0 0 0 1010.7 1010.2 0.0
24/07:00pm 24.1 24.3 10.4 42 7.6 CALM 0 0 0 0 1010.3 1009.8 0.0
24/06:30pm 27.2 26.0 9.5 33 9.8 ESE 6 9 3 5 1010.0 1009.5 0.0
24/06:00pm 29.8 27.6 9.3 28 11.5 E 11 15 6 8 1009.8 1009.3 0.0
24/05:30pm 30.7 28.0 9.0 26 12.2 E 13 19 7 10 1009.6 1009.1 0.0
24/05:00pm 31.2 28.2 7.6 23 13.0 ESE 13 20 7 11 1009.4 1008.9 0.0
24/04:30pm 31.9 28.6 8.2 23 13.2 ESE 15 20 8 11 1009.6 1009.1 0.0
24/04:00pm 32.3 29.7 9.2 24 13.1 ESE 13 19 7 10 1009.7 1009.2 0.0
24/03:30pm 31.6 28.2 9.2 25 12.7 SE 17 24 9 13 1009.8 1009.3 0.0
24/03:00pm 32.3 30.4 10.4 26 12.7 ESE 11 24 6 13 1010.1 1009.6 0.0
24/02:30pm 31.3 28.7 9.5 26 12.4 E 13 22 7 12 1010.7 1010.2 0.0
24/02:00pm 31.4 28.8 10.7 28 12.0 E 15 26 8 14 1011.3 1010.8 0.0
24/01:30pm 30.3 27.7 10.8 30 11.2 SE 15 24 8 13 1011.9 1011.4 0.0
24/01:00pm 31.3 28.8 12.2 31 11.3 E 17 30 9 16 1012.4 1012.0 0.0
24/12:30pm 30.4 27.4 11.9 32 10.8 ESE 19 28 10 15 1012.9 1012.4 0.0
24/12:00pm 29.5 28.1 13.3 37 9.7 ENE 13 22 7 12 1013.5 1013.0 0.0
24/11:30am 28.9 28.1 16.1 46 8.0 ENE 15 22 8 12 1013.9 1013.4 0.0
24/11:00am 27.6 26.4 16.2 49 7.1 ENE 17 24 9 13 1014.2 1013.7 0.0
24/10:30am 26.4 26.2 17.5 58 5.6 NE 15 22 8 12 1014.6 1014.1 0.0
24/10:00am 25.6 25.5 17.8 62 4.9 ENE 15 22 8 12 1014.8 1014.3 0.0
24/09:30am 24.0 25.7 18.4 71 3.5 ENE 7 11 4 6 1014.7 1014.2 0.0
24/09:00am 23.5 26.0 19.0 76 2.9 NE 4 7 2 4 1014.5 1014.0 0.0
24/08:30am 22.0 24.8 19.7 87 1.5 N 4 6 2 3 1014.1 1013.6 0.0
24/08:00am 20.4 23.2 19.6 95 0.5 N 4 6 2 3 1013.8 1013.3 0.0
24/07:30am 18.6 20.9 17.6 94 0.6 N 2 6 1 3 1013.3 1012.8 0.0
24/07:00am 17.7 19.2 16.6 93 0.7 N 4 4 2 2 1013.0 1012.5 0.0
24/06:30am 18.1 20.5 17.1 94 0.6 CALM 0 0 0 0 1012.8 1012.3 0.0
24/06:00am 17.8 19.5 16.3 91 0.9 N 2 2 1 1 1012.6 1012.2 0.0
24/05:30am 18.3 20.8 17.3 94 0.6 CALM 0 0 0 0 1012.6 1012.2 0.0
24/05:00am 18.1 20.3 16.4 90 1.0 CALM 0 0 0 0 1012.5 1012.1 0.0
24/04:30am 18.2 20.2 16.0 87 1.3 CALM 0 0 0 0 1012.4 1012.0 0.0
24/04:00am 18.4 20.6 16.4 88 1.2 CALM 0 0 0 0 1012.5 1012.1 0.0
24/03:30am 19.2 21.8 17.5 90 1.0 CALM 0 0 0 0 1012.5 1012.1 0.0
24/03:00am 20.1 23.3 18.8 92 0.8 CALM 0 0 0 0 1012.8 1012.3 0.0
24/02:30am 20.5 23.5 19.2 92 0.8 N 2 6 1 3 1013.0 1012.5 0.0
24/02:00am 19.6 22.2 17.4 87 1.3 CALM 0 0 0 0 1012.9 1012.4 0.0
24/01:30am 19.7 22.0 17.7 88 1.2 NW 2 2 1 1 1013.2 1012.7 0.0
24/01:00am 20.0 22.1 18.1 89 1.2 NW 4 4 2 2 1013.3 1012.8 0.0
24/12:30am 20.0 22.3 17.6 86 1.5 NNW 2 4 1 2 1013.4 1012.9 0.0
24/12:00am 20.4 22.7 17.8 85 1.6 NNW 2 2 1 1 1013.3 1012.8 0.0
 
Date/Time
CST
Temp
°C
App
Temp
°C
Dew
Point
°C
Rel
Hum
%
Delta-T
°C
Wind Press
QNH
hPa
Press
MSL
hPa
Rain since
9am
mm
Dir  Spd
km/h
Gust
km/h
Spd
kts
Gust
kts
23/11:30pm 21.1 23.4 17.7 81 2.1 NNW 2 4 1 2 1013.5 1013.0 0.0
23/11:00pm 21.6 24.4 18.0 80 2.2 CALM 0 0 0 0 1013.7 1013.2 0.0
23/10:30pm 22.4 24.5 18.0 76 2.8 NNW 4 6 2 3 1013.8 1013.3 0.0
23/10:00pm 23.3 26.3 19.2 78 2.6 NNW 2 4 1 2 1013.8 1013.3 0.0
23/09:30pm 23.5 25.6 19.0 76 2.9 NW 6 7 3 4 1013.6 1013.1 0.0
23/09:00pm 24.1 26.5 19.6 76 2.9 WNW 6 6 3 3 1013.3 1012.8 0.0
23/08:30pm 23.0 24.1 16.5 67 4.0 NNE 6 11 3 6 1012.9 1012.4 0.0
23/08:00pm 23.9 25.5 14.9 57 5.4 CALM 0 0 0 0 1012.5 1012.1 0.0
23/07:30pm 24.8 26.3 14.6 53 6.1 CALM 0 0 0 0 1011.9 1011.4 0.0
23/07:00pm 26.0 26.8 13.8 47 7.2 ESE 2 2 1 1 1011.4 1010.9 0.0
23/06:30pm 28.2 28.6 13.7 41 8.7 ESE 4 7 2 4 1011.3 1010.8 0.0
23/06:00pm 30.8 30.5 12.7 33 10.8 E 6 9 3 5 1010.9 1010.4 0.0
23/05:30pm 31.6 31.0 12.4 31 11.4 SE 7 11 4 6 1010.7 1010.2 0.0
23/05:00pm 32.0 31.5 12.8 31 11.5 ESE 7 15 4 8 1010.6 1010.1 0.0
23/04:30pm 32.1 30.4 12.3 29 11.8 ESE 13 20 7 11 1010.3 1009.8 0.0
23/04:00pm 32.6 32.3 13.3 31 11.7 ESE 7 13 4 7 1010.4 1009.9 0.0
23/03:30pm 31.9 31.0 12.7 31 11.5 ESE 9 19 5 10 1010.6 1010.1 0.0
23/03:00pm 32.5 32.3 13.7 32 11.4 ESE 7 17 4 9 1011.0 1010.5 0.0
23/02:30pm 31.7 30.7 13.5 33 11.0 SE 11 20 6 11 1011.3 1010.8 0.0
23/02:00pm 31.4 30.5 13.6 33 10.8 ESE 11 19 6 10 1011.9 1011.4 0.0
23/01:30pm 31.3 30.2 14.4 35 10.3 E 13 26 7 14 1012.5 1012.1 0.0
23/01:00pm 30.8 30.6 15.6 39 9.4 ESE 11 22 6 12 1013.0 1012.5 0.0
23/12:30pm 30.5 29.6 15.8 41 9.1 E 15 22 8 12 1013.8 1013.3 0.0
23/12:00pm 29.4 28.2 15.1 41 8.8 ESE 15 26 8 14 1014.4 1013.9 0.0
23/11:30am 28.4 27.7 15.3 45 8.0 ESE 13 28 7 15 1014.8 1014.3 0.0
23/11:00am 28.3 28.2 16.9 50 7.2 E 13 20 7 11 1015.3 1014.8 0.0
23/10:30am 27.4 28.5 17.0 53 6.5 NE 7 11 4 6 1015.5 1015.0 0.0
23/10:00am 26.6 27.6 16.8 55 6.1 E 7 13 4 7 1015.7 1015.2 0.0
23/09:30am 26.0 26.9 16.0 54 6.1 ESE 6 9 3 5 1015.7 1015.2 0.0
23/09:00am 24.6 25.1 15.0 55 5.8 E 6 7 3 4 1015.6 1015.1 0.0
23/08:30am 22.8 23.1 14.4 59 5.0 E 6 9 3 5 1015.3 1014.8 0.0
23/08:00am 20.8 20.6 13.7 64 4.1 NNE 7 11 4 6 1015.1 1014.6 0.0
23/07:30am 19.4 19.1 13.3 68 3.5 ENE 7 9 4 5 1014.9 1014.4 0.0
23/07:00am 19.1 18.0 12.1 64 3.9 ENE 9 11 5 6 1014.6 1014.1 0.0
23/06:30am 18.4 17.8 12.4 68 3.4 E 7 9 4 5 1014.1 1013.6 0.0
23/06:00am 17.4 17.4 13.5 78 2.2 S 6 7 3 4 1013.8 1013.3 0.0
23/05:30am 16.1 17.2 13.4 84 1.5 CALM 0 0 0 0 1013.7 1013.2 0.0
23/05:00am 16.1 17.0 13.0 82 1.7 CALM 0 0 0 0 1013.7 1013.2 0.0
23/04:30am 16.8 17.7 12.9 78 2.2 CALM 0 2 0 1 1013.5 1013.0 0.0
23/04:00am 17.7 18.7 14.2 80 2.0 SSE 2 4 1 2 1013.8 1013.3 0.0
23/03:30am 17.5 18.6 13.4 77 2.3 CALM 0 0 0 0 1013.9 1013.4 0.0
23/03:00am 17.5 18.6 13.6 78 2.2 CALM 0 4 0 2 1013.8 1013.3 0.0
23/02:30am 17.3 17.8 14.0 81 1.9 SW 4 6 2 3 1014.1 1013.6 0.0
23/02:00am 18.2 19.7 14.7 80 2.0 CALM 0 0 0 0 1014.4 1013.9 0.0
23/01:30am 18.0 19.1 14.5 80 2.0 W 2 4 1 2 1014.8 1014.3 0.0
23/01:00am 18.2 19.6 14.3 78 2.3 CALM 0 0 0 0 1015.0 1014.5 0.0
23/12:30am 18.9 20.4 14.6 76 2.5 CALM 0 4 0 2 1015.2 1014.7 0.0
23/12:00am 19.3 20.8 14.6 74 2.7 CALM 0 0 0 0 1015.2 1014.7 0.0
 
Date/Time
CST
Temp
°C
App
Temp
°C
Dew
Point
°C
Rel
Hum
%
Delta-T
°C
Wind Press
QNH
hPa
Press
MSL
hPa
Rain since
9am
mm
Dir  Spd
km/h
Gust
km/h
Spd
kts
Gust
kts
22/11:30pm 19.7 20.6 13.9 69 3.3 W 2 2 1 1 1015.2 1014.7 0.0
22/11:00pm 21.3 22.1 14.7 66 3.9 W 4 4 2 2 1015.3 1014.8 0.0
22/10:30pm 22.4 22.9 15.0 63 4.4 W 6 6 3 3 1015.5 1015.0 0.0
22/10:00pm 22.8 23.1 14.6 60 4.9 W 6 6 3 3 1015.6 1015.1 0.0
22/09:30pm 23.1 23.1 12.4 51 6.1 NW 4 9 2 5 1015.5 1015.0 0.0
22/09:00pm 22.9 22.0 11.3 48 6.5 N 7 17 4 9 1015.2 1014.7 0.0
22/08:30pm 22.0 22.4 11.4 51 5.9 CALM 0 0 0 0 1014.7 1014.2 0.0

Latest Capital City Observations: Canberra | Sydney | Melbourne | Brisbane | Adelaide | Perth | Hobart | Darwin

Other Formats:

Comma delimited format used in spreadsheet applications
http://www.bom.gov.au/fwo/IDD60901/IDD60901.94125.axf

JavaScript Object Notation format (JSON) in row-major order
http://www.bom.gov.au/fwo/IDD60901/IDD60901.94125.json